sensor_id;sensor_type;location;lat;lon;timestamp;noise_LAeq;noise_LA_min;noise_LA_max;noise_LA01;noise_LA95
71628;Laerm;59477;52.374;9.916;2023-07-31T00:01:34;40.42;36.33;50.19;;
71628;Laerm;59477;52.374;9.916;2023-07-31T00:03:35;37.94;35.71;50.89;;
71628;Laerm;59477;52.374;9.916;2023-07-31T00:05:35;39.70;35.88;57.40;;
71628;Laerm;59477;52.374;9.916;2023-07-31T00:07:35;41.43;37.04;61.83;;
71628;Laerm;59477;52.374;9.916;2023-07-31T00:09:36;42.83;37.46;70.41;;
71628;Laerm;59477;52.374;9.916;2023-07-31T00:11:36;39.51;36.81;60.51;;
71628;Laerm;59477;52.374;9.916;2023-07-31T00:13:37;40.18;36.97;61.34;;
71628;Laerm;59477;52.374;9.916;2023-07-31T00:15:37;42.61;37.30;63.10;;
71628;Laerm;59477;52.374;9.916;2023-07-31T00:17:37;39.00;35.89;56.42;;
71628;Laerm;59477;52.374;9.916;2023-07-31T00:19:37;39.70;36.44;60.42;;
71628;Laerm;59477;52.374;9.916;2023-07-31T00:21:38;41.34;37.38;65.57;;
71628;Laerm;59477;52.374;9.916;2023-07-31T00:23:38;39.12;35.80;58.55;;
71628;Laerm;59477;52.374;9.916;2023-07-31T00:25:38;37.47;35.49;45.22;;
71628;Laerm;59477;52.374;9.916;2023-07-31T00:27:38;37.07;34.93;52.36;;
71628;Laerm;59477;52.374;9.916;2023-07-31T00:29:38;38.75;35.51;56.45;;
71628;Laerm;59477;52.374;9.916;2023-07-31T00:31:39;43.76;37.58;66.89;;
71628;Laerm;59477;52.374;9.916;2023-07-31T00:33:39;48.28;41.55;73.33;;
71628;Laerm;59477;52.374;9.916;2023-07-31T00:35:39;47.92;41.42;67.95;;
71628;Laerm;59477;52.374;9.916;2023-07-31T00:37:39;43.75;38.56;64.68;;
71628;Laerm;59477;52.374;9.916;2023-07-31T00:39:40;43.15;37.72;65.41;;
71628;Laerm;59477;52.374;9.916;2023-07-31T00:41:40;46.52;40.06;68.65;;
71628;Laerm;59477;52.374;9.916;2023-07-31T00:43:40;48.87;40.33;78.97;;
71628;Laerm;59477;52.374;9.916;2023-07-31T00:45:40;43.56;38.72;67.26;;
71628;Laerm;59477;52.374;9.916;2023-07-31T00:47:41;42.77;38.41;64.68;;
71628;Laerm;59477;52.374;9.916;2023-07-31T00:49:41;46.00;38.18;75.81;;
71628;Laerm;59477;52.374;9.916;2023-07-31T00:51:41;47.73;41.66;74.73;;
71628;Laerm;59477;52.374;9.916;2023-07-31T00:53:42;43.94;37.96;69.76;;
71628;Laerm;59477;52.374;9.916;2023-07-31T00:55:43;49.56;39.35;74.12;;
71628;Laerm;59477;52.374;9.916;2023-07-31T00:57:43;51.03;42.43;75.37;;
71628;Laerm;59477;52.374;9.916;2023-07-31T00:59:45;52.53;45.32;77.40;;
71628;Laerm;59477;52.374;9.916;2023-07-31T01:01:46;50.43;43.66;77.32;;
71628;Laerm;59477;52.374;9.916;2023-07-31T01:03:47;47.83;42.24;68.99;;
71628;Laerm;59477;52.374;9.916;2023-07-31T01:08:04;43.86;40.00;62.12;;
71628;Laerm;59477;52.374;9.916;2023-07-31T01:10:11;45.75;40.73;70.68;;
71628;Laerm;59477;52.374;9.916;2023-07-31T01:12:15;49.15;42.59;71.61;;
71628;Laerm;59477;52.374;9.916;2023-07-31T01:14:16;50.91;44.35;74.16;;
71628;Laerm;59477;52.374;9.916;2023-07-31T01:16:17;47.76;41.98;69.19;;
71628;Laerm;59477;52.374;9.916;2023-07-31T01:18:17;47.79;42.14;72.58;;
71628;Laerm;59477;52.374;9.916;2023-07-31T01:20:26;46.21;41.20;67.61;;
71628;Laerm;59477;52.374;9.916;2023-07-31T01:24:35;46.24;41.47;67.52;;
71628;Laerm;59477;52.374;9.916;2023-07-31T01:26:38;45.75;41.27;69.27;;
71628;Laerm;59477;52.374;9.916;2023-07-31T01:28:47;47.06;40.94;68.57;;
71628;Laerm;59477;52.374;9.916;2023-07-31T01:30:50;44.00;39.92;65.66;;
71628;Laerm;59477;52.374;9.916;2023-07-31T01:32:50;42.88;39.42;61.32;;
71628;Laerm;59477;52.374;9.916;2023-07-31T01:34:52;43.06;39.56;59.53;;
71628;Laerm;59477;52.374;9.916;2023-07-31T01:36:53;44.43;40.32;62.31;;
71628;Laerm;59477;52.374;9.916;2023-07-31T01:39:02;44.08;39.37;68.12;;
71628;Laerm;59477;52.374;9.916;2023-07-31T01:41:03;48.31;40.87;78.85;;
71628;Laerm;59477;52.374;9.916;2023-07-31T01:43:04;49.98;40.82;79.50;;
71628;Laerm;59477;52.374;9.916;2023-07-31T01:45:04;45.43;39.54;71.15;;
71628;Laerm;59477;52.374;9.916;2023-07-31T01:47:04;46.10;39.83;72.28;;
71628;Laerm;59477;52.374;9.916;2023-07-31T01:49:05;48.77;42.21;71.97;;
71628;Laerm;59477;52.374;9.916;2023-07-31T01:51:06;51.88;43.21;74.39;;
71628;Laerm;59477;52.374;9.916;2023-07-31T01:53:06;51.00;44.12;76.03;;
71628;Laerm;59477;52.374;9.916;2023-07-31T01:55:07;49.51;41.90;71.62;;
71628;Laerm;59477;52.374;9.916;2023-07-31T01:57:07;46.86;41.61;67.62;;
71628;Laerm;59477;52.374;9.916;2023-07-31T01:59:07;47.67;39.73;77.29;;
71628;Laerm;59477;52.374;9.916;2023-07-31T02:01:07;44.39;39.83;66.80;;
71628;Laerm;59477;52.374;9.916;2023-07-31T02:03:08;47.77;41.11;75.50;;
71628;Laerm;59477;52.374;9.916;2023-07-31T02:05:08;48.99;42.13;73.86;;
71628;Laerm;59477;52.374;9.916;2023-07-31T02:07:08;45.66;40.83;66.30;;
71628;Laerm;59477;52.374;9.916;2023-07-31T02:09:08;43.80;39.83;66.38;;
71628;Laerm;59477;52.374;9.916;2023-07-31T02:11:09;43.50;39.48;64.15;;
71628;Laerm;59477;52.374;9.916;2023-07-31T02:13:09;45.57;40.46;64.48;;
71628;Laerm;59477;52.374;9.916;2023-07-31T02:15:09;44.76;40.41;64.85;;
71628;Laerm;59477;52.374;9.916;2023-07-31T02:17:09;44.30;40.55;65.87;;
71628;Laerm;59477;52.374;9.916;2023-07-31T02:19:10;45.18;40.65;64.65;;
71628;Laerm;59477;52.374;9.916;2023-07-31T02:21:10;47.46;41.10;73.03;;
71628;Laerm;59477;52.374;9.916;2023-07-31T02:23:10;49.10;42.49;75.58;;
71628;Laerm;59477;52.374;9.916;2023-07-31T02:25:10;44.87;40.16;66.11;;
71628;Laerm;59477;52.374;9.916;2023-07-31T02:27:11;42.83;39.30;68.28;;
71628;Laerm;59477;52.374;9.916;2023-07-31T02:29:11;44.04;39.85;67.33;;
71628;Laerm;59477;52.374;9.916;2023-07-31T02:31:11;43.88;40.08;64.03;;
71628;Laerm;59477;52.374;9.916;2023-07-31T02:33:11;42.36;38.89;59.07;;
71628;Laerm;59477;52.374;9.916;2023-07-31T02:35:12;46.32;39.37;66.78;;
71628;Laerm;59477;52.374;9.916;2023-07-31T02:37:15;49.02;42.98;69.89;;
71628;Laerm;59477;52.374;9.916;2023-07-31T02:39:15;49.30;43.22;75.07;;
71628;Laerm;59477;52.374;9.916;2023-07-31T02:41:15;48.97;42.88;69.12;;
71628;Laerm;59477;52.374;9.916;2023-07-31T02:43:16;51.22;43.90;75.46;;
71628;Laerm;59477;52.374;9.916;2023-07-31T02:45:16;47.49;41.85;72.07;;
71628;Laerm;59477;52.374;9.916;2023-07-31T02:47:16;47.02;41.54;71.07;;
71628;Laerm;59477;52.374;9.916;2023-07-31T02:49:16;47.65;42.03;73.57;;
71628;Laerm;59477;52.374;9.916;2023-07-31T02:51:17;47.47;41.59;76.48;;
71628;Laerm;59477;52.374;9.916;2023-07-31T02:53:17;48.30;42.41;70.13;;
71628;Laerm;59477;52.374;9.916;2023-07-31T02:55:17;48.20;41.56;75.10;;
71628;Laerm;59477;52.374;9.916;2023-07-31T02:57:17;47.03;42.49;71.57;;
71628;Laerm;59477;52.374;9.916;2023-07-31T02:59:18;48.52;42.03;75.71;;
71628;Laerm;59477;52.374;9.916;2023-07-31T03:01:18;49.19;42.44;76.38;;
71628;Laerm;59477;52.374;9.916;2023-07-31T03:03:19;48.79;42.94;71.67;;
71628;Laerm;59477;52.374;9.916;2023-07-31T03:05:19;45.29;41.54;65.43;;
71628;Laerm;59477;52.374;9.916;2023-07-31T03:07:19;43.29;39.80;64.28;;
71628;Laerm;59477;52.374;9.916;2023-07-31T03:09:19;44.29;40.19;65.38;;
71628;Laerm;59477;52.374;9.916;2023-07-31T03:11:20;44.16;40.65;61.92;;
71628;Laerm;59477;52.374;9.916;2023-07-31T03:13:20;44.15;40.25;65.29;;
71628;Laerm;59477;52.374;9.916;2023-07-31T03:15:20;44.86;40.25;69.81;;
71628;Laerm;59477;52.374;9.916;2023-07-31T03:17:20;47.75;41.41;70.42;;
71628;Laerm;59477;52.374;9.916;2023-07-31T03:19:20;47.80;42.44;72.34;;
71628;Laerm;59477;52.374;9.916;2023-07-31T03:21:21;48.03;42.02;73.31;;
71628;Laerm;59477;52.374;9.916;2023-07-31T03:23:21;44.26;40.01;65.85;;
71628;Laerm;59477;52.374;9.916;2023-07-31T03:25:21;42.12;39.17;58.33;;
71628;Laerm;59477;52.374;9.916;2023-07-31T03:27:21;43.55;39.80;62.31;;
71628;Laerm;59477;52.374;9.916;2023-07-31T03:29:22;43.50;39.73;63.70;;
71628;Laerm;59477;52.374;9.916;2023-07-31T03:31:22;45.81;41.61;67.13;;
71628;Laerm;59477;52.374;9.916;2023-07-31T03:33:22;44.90;41.06;65.50;;
71628;Laerm;59477;52.374;9.916;2023-07-31T03:35:22;44.16;40.15;59.89;;
71628;Laerm;59477;52.374;9.916;2023-07-31T03:37:23;43.72;40.37;64.25;;
71628;Laerm;59477;52.374;9.916;2023-07-31T03:39:23;43.65;40.54;60.11;;
71628;Laerm;59477;52.374;9.916;2023-07-31T03:41:23;44.41;41.01;62.02;;
71628;Laerm;59477;52.374;9.916;2023-07-31T03:43:24;45.01;41.52;61.16;;
71628;Laerm;59477;52.374;9.916;2023-07-31T03:45:24;45.48;41.40;69.00;;
71628;Laerm;59477;52.374;9.916;2023-07-31T03:47:25;44.35;41.14;64.83;;
71628;Laerm;59477;52.374;9.916;2023-07-31T03:49:26;45.84;41.22;68.47;;
71628;Laerm;59477;52.374;9.916;2023-07-31T03:51:26;47.95;42.12;70.70;;
71628;Laerm;59477;52.374;9.916;2023-07-31T03:53:26;46.37;41.70;68.19;;
71628;Laerm;59477;52.374;9.916;2023-07-31T03:55:26;47.64;43.00;67.97;;
71628;Laerm;59477;52.374;9.916;2023-07-31T03:57:27;48.00;43.68;67.03;;
71628;Laerm;59477;52.374;9.916;2023-07-31T03:59:27;47.22;42.84;65.23;;
71628;Laerm;59477;52.374;9.916;2023-07-31T04:01:27;46.06;41.75;64.24;;
71628;Laerm;59477;52.374;9.916;2023-07-31T04:03:27;46.61;42.48;66.70;;
71628;Laerm;59477;52.374;9.916;2023-07-31T04:05:29;47.73;43.17;65.39;;
71628;Laerm;59477;52.374;9.916;2023-07-31T04:07:30;48.18;42.98;67.36;;
71628;Laerm;59477;52.374;9.916;2023-07-31T04:09:30;53.67;48.40;69.83;;
71628;Laerm;59477;52.374;9.916;2023-07-31T04:11:30;53.88;46.98;69.80;;
71628;Laerm;59477;52.374;9.916;2023-07-31T04:13:30;48.82;44.94;64.70;;
71628;Laerm;59477;52.374;9.916;2023-07-31T04:15:31;50.34;45.19;70.79;;
71628;Laerm;59477;52.374;9.916;2023-07-31T04:17:31;51.99;45.44;74.07;;
71628;Laerm;59477;52.374;9.916;2023-07-31T04:19:31;49.82;43.86;69.47;;
71628;Laerm;59477;52.374;9.916;2023-07-31T04:21:31;45.60;41.55;64.28;;
71628;Laerm;59477;52.374;9.916;2023-07-31T04:23:32;46.85;41.22;66.43;;
71628;Laerm;59477;52.374;9.916;2023-07-31T04:25:32;49.67;43.37;70.36;;
71628;Laerm;59477;52.374;9.916;2023-07-31T04:27:34;45.08;41.07;61.69;;
71628;Laerm;59477;52.374;9.916;2023-07-31T04:29:35;46.63;42.11;61.70;;
71628;Laerm;59477;52.374;9.916;2023-07-31T04:31:35;48.30;43.11;74.83;;
71628;Laerm;59477;52.374;9.916;2023-07-31T04:33:35;48.11;42.80;69.90;;
71628;Laerm;59477;52.374;9.916;2023-07-31T04:35:35;45.78;41.62;67.77;;
71628;Laerm;59477;52.374;9.916;2023-07-31T04:37:36;44.33;40.90;58.68;;
71628;Laerm;59477;52.374;9.916;2023-07-31T04:39:36;43.44;40.42;52.54;;
71628;Laerm;59477;52.374;9.916;2023-07-31T04:41:36;42.62;39.71;56.68;;
71628;Laerm;59477;52.374;9.916;2023-07-31T04:43:36;44.41;40.62;60.90;;
71628;Laerm;59477;52.374;9.916;2023-07-31T04:45:39;44.73;41.77;58.11;;
71628;Laerm;59477;52.374;9.916;2023-07-31T04:47:39;47.34;42.31;64.24;;
71628;Laerm;59477;52.374;9.916;2023-07-31T04:49:39;47.95;42.57;73.90;;
71628;Laerm;59477;52.374;9.916;2023-07-31T04:51:39;48.83;43.77;69.00;;
71628;Laerm;59477;52.374;9.916;2023-07-31T04:53:40;52.85;45.69;72.48;;
71628;Laerm;59477;52.374;9.916;2023-07-31T04:55:40;57.35;49.97;75.55;;
71628;Laerm;59477;52.374;9.916;2023-07-31T04:57:40;57.88;46.53;81.09;;
71628;Laerm;59477;52.374;9.916;2023-07-31T04:59:40;50.65;46.18;69.74;;
71628;Laerm;59477;52.374;9.916;2023-07-31T05:01:41;52.29;46.46;76.88;;
71628;Laerm;59477;52.374;9.916;2023-07-31T05:03:41;50.52;45.56;71.46;;
71628;Laerm;59477;52.374;9.916;2023-07-31T05:05:41;49.92;45.40;68.21;;
71628;Laerm;59477;52.374;9.916;2023-07-31T05:07:41;48.67;44.64;64.80;;
71628;Laerm;59477;52.374;9.916;2023-07-31T05:09:42;46.87;43.35;58.99;;
71628;Laerm;59477;52.374;9.916;2023-07-31T05:11:42;45.66;42.49;55.35;;
71628;Laerm;59477;52.374;9.916;2023-07-31T05:13:43;45.02;42.29;56.05;;
71628;Laerm;59477;52.374;9.916;2023-07-31T05:15:43;45.19;42.21;53.69;;
71628;Laerm;59477;52.374;9.916;2023-07-31T05:17:43;47.33;43.24;59.26;;
71628;Laerm;59477;52.374;9.916;2023-07-31T05:19:43;52.27;45.17;69.35;;
71628;Laerm;59477;52.374;9.916;2023-07-31T05:21:44;53.15;46.93;73.78;;
71628;Laerm;59477;52.374;9.916;2023-07-31T05:23:44;47.82;43.55;61.14;;
71628;Laerm;59477;52.374;9.916;2023-07-31T05:25:44;44.20;40.55;51.93;;
71628;Laerm;59477;52.374;9.916;2023-07-31T05:27:44;43.08;40.19;55.29;;
71628;Laerm;59477;52.374;9.916;2023-07-31T05:29:45;43.58;40.36;50.21;;
71628;Laerm;59477;52.374;9.916;2023-07-31T05:31:46;44.63;41.64;62.90;;
71628;Laerm;59477;52.374;9.916;2023-07-31T05:33:46;52.97;41.80;63.35;;
71628;Laerm;59477;52.374;9.916;2023-07-31T05:35:46;55.50;44.49;71.68;;
71628;Laerm;59477;52.374;9.916;2023-07-31T05:37:46;54.03;44.96;73.33;;
71628;Laerm;59477;52.374;9.916;2023-07-31T05:39:47;52.27;43.94;61.87;;
71628;Laerm;59477;52.374;9.916;2023-07-31T05:41:47;50.79;43.86;60.86;;
71628;Laerm;59477;52.374;9.916;2023-07-31T05:43:47;49.10;43.44;55.58;;
71628;Laerm;59477;52.374;9.916;2023-07-31T05:45:47;48.85;42.37;61.39;;
71628;Laerm;59477;52.374;9.916;2023-07-31T05:47:48;50.04;44.24;67.62;;
71628;Laerm;59477;52.374;9.916;2023-07-31T05:49:48;51.21;46.12;66.66;;
71628;Laerm;59477;52.374;9.916;2023-07-31T05:51:49;56.15;48.09;80.72;;
71628;Laerm;59477;52.374;9.916;2023-07-31T05:53:49;54.36;47.50;67.43;;
71628;Laerm;59477;52.374;9.916;2023-07-31T05:55:49;56.40;47.32;76.59;;
71628;Laerm;59477;52.374;9.916;2023-07-31T05:57:50;53.53;47.35;76.25;;
71628;Laerm;59477;52.374;9.916;2023-07-31T05:59:50;52.45;45.20;65.57;;
71628;Laerm;59477;52.374;9.916;2023-07-31T06:01:50;51.85;45.24;61.08;;
71628;Laerm;59477;52.374;9.916;2023-07-31T06:03:50;48.81;43.20;59.88;;
71628;Laerm;59477;52.374;9.916;2023-07-31T06:05:51;47.67;43.30;58.58;;
71628;Laerm;59477;52.374;9.916;2023-07-31T06:07:51;47.36;41.90;62.60;;
71628;Laerm;59477;52.374;9.916;2023-07-31T06:09:52;45.89;42.26;56.93;;
71628;Laerm;59477;52.374;9.916;2023-07-31T06:11:52;52.47;42.64;70.16;;
71628;Laerm;59477;52.374;9.916;2023-07-31T06:13:52;55.42;43.07;72.34;;
71628;Laerm;59477;52.374;9.916;2023-07-31T06:15:53;47.81;44.05;53.55;;
71628;Laerm;59477;52.374;9.916;2023-07-31T06:17:53;47.41;43.16;61.08;;
71628;Laerm;59477;52.374;9.916;2023-07-31T06:19:54;46.21;41.42;51.10;;
71628;Laerm;59477;52.374;9.916;2023-07-31T06:21:54;46.21;42.09;54.88;;
71628;Laerm;59477;52.374;9.916;2023-07-31T06:23:54;46.82;42.40;52.90;;
71628;Laerm;59477;52.374;9.916;2023-07-31T06:25:54;47.05;42.38;56.47;;
71628;Laerm;59477;52.374;9.916;2023-07-31T06:27:55;46.44;43.11;53.83;;
71628;Laerm;59477;52.374;9.916;2023-07-31T06:29:55;48.21;43.15;57.49;;
71628;Laerm;59477;52.374;9.916;2023-07-31T06:31:55;46.98;42.66;66.34;;
71628;Laerm;59477;52.374;9.916;2023-07-31T06:33:55;46.72;43.16;62.56;;
71628;Laerm;59477;52.374;9.916;2023-07-31T06:35:56;46.75;43.06;60.81;;
71628;Laerm;59477;52.374;9.916;2023-07-31T06:37:56;46.34;42.66;57.20;;
71628;Laerm;59477;52.374;9.916;2023-07-31T06:39:56;45.56;42.44;55.58;;
71628;Laerm;59477;52.374;9.916;2023-07-31T06:41:56;46.82;42.52;61.00;;
71628;Laerm;59477;52.374;9.916;2023-07-31T06:43:56;45.30;41.73;65.03;;
71628;Laerm;59477;52.374;9.916;2023-07-31T06:45:57;46.57;41.84;67.11;;
71628;Laerm;59477;52.374;9.916;2023-07-31T06:47:57;50.58;45.30;76.12;;
71628;Laerm;59477;52.374;9.916;2023-07-31T06:50:01;51.37;44.58;75.49;;
71628;Laerm;59477;52.374;9.916;2023-07-31T06:52:01;56.07;47.62;78.75;;
71628;Laerm;59477;52.374;9.916;2023-07-31T06:54:02;52.11;46.35;74.98;;
71628;Laerm;59477;52.374;9.916;2023-07-31T06:56:02;56.32;48.79;78.92;;
71628;Laerm;59477;52.374;9.916;2023-07-31T06:58:03;57.81;49.21;80.38;;
71628;Laerm;59477;52.374;9.916;2023-07-31T07:00:03;56.90;48.29;78.23;;
71628;Laerm;59477;52.374;9.916;2023-07-31T07:02:04;56.82;48.99;78.30;;
71628;Laerm;59477;52.374;9.916;2023-07-31T07:04:04;54.06;46.45;75.69;;
71628;Laerm;59477;52.374;9.916;2023-07-31T07:06:05;50.36;44.35;69.09;;
71628;Laerm;59477;52.374;9.916;2023-07-31T07:08:05;54.46;46.06;79.75;;
71628;Laerm;59477;52.374;9.916;2023-07-31T07:10:05;59.24;50.59;85.37;;
71628;Laerm;59477;52.374;9.916;2023-07-31T07:12:06;58.63;49.70;83.88;;
71628;Laerm;59477;52.374;9.916;2023-07-31T07:14:06;59.51;49.63;84.02;;
71628;Laerm;59477;52.374;9.916;2023-07-31T07:16:06;50.17;45.13;72.96;;
71628;Laerm;59477;52.374;9.916;2023-07-31T07:18:07;53.62;46.29;77.57;;
71628;Laerm;59477;52.374;9.916;2023-07-31T07:20:07;55.51;47.47;82.29;;
71628;Laerm;59477;52.374;9.916;2023-07-31T07:22:08;52.38;46.00;75.33;;
71628;Laerm;59477;52.374;9.916;2023-07-31T07:24:08;48.55;44.12;66.46;;
71628;Laerm;59477;52.374;9.916;2023-07-31T07:26:08;47.12;42.98;66.89;;
71628;Laerm;59477;52.374;9.916;2023-07-31T07:28:08;48.82;44.31;70.66;;
71628;Laerm;59477;52.374;9.916;2023-07-31T07:30:09;47.95;43.71;69.65;;
71628;Laerm;59477;52.374;9.916;2023-07-31T07:32:09;50.06;43.93;70.82;;
71628;Laerm;59477;52.374;9.916;2023-07-31T07:34:09;58.84;47.75;82.22;;
71628;Laerm;59477;52.374;9.916;2023-07-31T07:36:10;53.99;46.76;74.52;;
71628;Laerm;59477;52.374;9.916;2023-07-31T07:38:10;54.47;47.36;78.42;;
71628;Laerm;59477;52.374;9.916;2023-07-31T07:40:10;54.01;45.34;77.63;;
71628;Laerm;59477;52.374;9.916;2023-07-31T07:42:10;47.13;43.76;60.62;;
71628;Laerm;59477;52.374;9.916;2023-07-31T07:44:11;46.79;43.21;59.94;;
71628;Laerm;59477;52.374;9.916;2023-07-31T07:46:11;47.18;43.30;55.36;;
71628;Laerm;59477;52.374;9.916;2023-07-31T07:48:11;46.29;42.01;53.58;;
71628;Laerm;59477;52.374;9.916;2023-07-31T07:50:12;45.07;41.88;58.49;;
71628;Laerm;59477;52.374;9.916;2023-07-31T07:52:12;46.03;42.33;52.34;;
71628;Laerm;59477;52.374;9.916;2023-07-31T07:54:12;51.62;44.39;60.11;;
71628;Laerm;59477;52.374;9.916;2023-07-31T07:56:12;58.19;44.28;77.15;;
71628;Laerm;59477;52.374;9.916;2023-07-31T07:58:13;55.50;44.71;63.29;;
71628;Laerm;59477;52.374;9.916;2023-07-31T08:00:13;59.40;44.23;66.48;;
71628;Laerm;59477;52.374;9.916;2023-07-31T08:02:13;73.75;53.65;81.80;;
71628;Laerm;59477;52.374;9.916;2023-07-31T08:04:13;75.21;54.93;82.34;;
71628;Laerm;59477;52.374;9.916;2023-07-31T08:06:14;63.50;45.94;72.91;;
71628;Laerm;59477;52.374;9.916;2023-07-31T08:08:14;59.91;44.95;71.71;;
71628;Laerm;59477;52.374;9.916;2023-07-31T08:10:16;69.70;46.97;81.09;;
71628;Laerm;59477;52.374;9.916;2023-07-31T08:12:16;49.32;42.91;55.25;;
71628;Laerm;59477;52.374;9.916;2023-07-31T08:14:16;66.49;49.06;79.81;;
71628;Laerm;59477;52.374;9.916;2023-07-31T08:16:17;70.12;41.40;86.19;;
71628;Laerm;59477;52.374;9.916;2023-07-31T08:18:17;46.61;41.98;60.66;;
71628;Laerm;59477;52.374;9.916;2023-07-31T08:20:17;47.36;41.36;67.60;;
71628;Laerm;59477;52.374;9.916;2023-07-31T08:22:17;49.28;42.34;69.05;;
71628;Laerm;59477;52.374;9.916;2023-07-31T08:24:18;50.28;42.94;67.54;;
71628;Laerm;59477;52.374;9.916;2023-07-31T08:26:18;50.39;42.97;64.87;;
71628;Laerm;59477;52.374;9.916;2023-07-31T08:28:19;48.77;43.50;63.20;;
71628;Laerm;59477;52.374;9.916;2023-07-31T08:30:19;66.39;42.76;81.35;;
71628;Laerm;59477;52.374;9.916;2023-07-31T08:32:20;50.19;44.33;61.20;;
71628;Laerm;59477;52.374;9.916;2023-07-31T08:34:20;47.11;42.41;63.12;;
71628;Laerm;59477;52.374;9.916;2023-07-31T08:36:20;48.33;43.85;60.04;;
71628;Laerm;59477;52.374;9.916;2023-07-31T08:38:20;47.37;43.33;56.50;;
71628;Laerm;59477;52.374;9.916;2023-07-31T08:40:21;47.50;42.92;52.03;;
71628;Laerm;59477;52.374;9.916;2023-07-31T08:42:24;48.40;44.25;57.16;;
71628;Laerm;59477;52.374;9.916;2023-07-31T08:44:25;50.01;43.94;64.33;;
71628;Laerm;59477;52.374;9.916;2023-07-31T08:46:25;55.62;45.66;69.13;;
71628;Laerm;59477;52.374;9.916;2023-07-31T08:48:25;70.05;50.49;82.07;;
71628;Laerm;59477;52.374;9.916;2023-07-31T08:50:26;67.73;49.04;83.12;;
71628;Laerm;59477;52.374;9.916;2023-07-31T08:52:27;51.44;45.84;61.42;;
71628;Laerm;59477;52.374;9.916;2023-07-31T08:54:29;53.41;45.71;62.51;;
71628;Laerm;59477;52.374;9.916;2023-07-31T08:56:31;62.89;47.07;70.04;;
71628;Laerm;59477;52.374;9.916;2023-07-31T08:58:32;58.48;44.12;68.99;;
71628;Laerm;59477;52.374;9.916;2023-07-31T09:00:32;47.24;42.37;56.01;;
71628;Laerm;59477;52.374;9.916;2023-07-31T09:02:46;46.81;43.65;56.80;;
71628;Laerm;59477;52.374;9.916;2023-07-31T09:04:48;47.73;41.39;58.32;;
71628;Laerm;59477;52.374;9.916;2023-07-31T09:06:49;48.90;40.83;57.56;;
71628;Laerm;59477;52.374;9.916;2023-07-31T09:08:50;48.95;44.44;55.96;;
71628;Laerm;59477;52.374;9.916;2023-07-31T09:10:50;47.90;42.45;64.42;;
71628;Laerm;59477;52.374;9.916;2023-07-31T09:12:51;44.92;40.39;57.35;;
71628;Laerm;59477;52.374;9.916;2023-07-31T09:14:51;44.52;40.69;50.09;;
71628;Laerm;59477;52.374;9.916;2023-07-31T09:16:52;47.25;41.60;73.14;;
71628;Laerm;59477;52.374;9.916;2023-07-31T09:18:54;47.58;42.83;63.83;;
71628;Laerm;59477;52.374;9.916;2023-07-31T09:21:00;46.66;40.87;73.96;;
71628;Laerm;59477;52.374;9.916;2023-07-31T09:23:19;49.39;40.11;75.72;;
71628;Laerm;59477;52.374;9.916;2023-07-31T09:25:25;42.98;39.33;53.39;;
71628;Laerm;59477;52.374;9.916;2023-07-31T09:27:26;45.08;39.15;65.69;;
71628;Laerm;59477;52.374;9.916;2023-07-31T09:29:27;53.66;39.47;73.99;;
71628;Laerm;59477;52.374;9.916;2023-07-31T09:31:31;45.44;38.88;61.98;;
71628;Laerm;59477;52.374;9.916;2023-07-31T09:33:32;46.65;40.69;68.53;;
71628;Laerm;59477;52.374;9.916;2023-07-31T09:35:33;44.22;40.24;55.21;;
71628;Laerm;59477;52.374;9.916;2023-07-31T09:37:33;44.46;40.28;56.88;;
71628;Laerm;59477;52.374;9.916;2023-07-31T09:39:44;45.94;41.13;57.16;;
71628;Laerm;59477;52.374;9.916;2023-07-31T09:41:47;45.98;41.02;54.15;;
71628;Laerm;59477;52.374;9.916;2023-07-31T09:43:53;44.88;40.27;52.74;;
71628;Laerm;59477;52.374;9.916;2023-07-31T09:45:55;48.17;42.39;60.68;;
71628;Laerm;59477;52.374;9.916;2023-07-31T09:47:56;45.05;40.56;53.69;;
71628;Laerm;59477;52.374;9.916;2023-07-31T09:49:56;47.45;42.22;63.42;;
71628;Laerm;59477;52.374;9.916;2023-07-31T09:51:57;46.02;38.33;53.33;;
71628;Laerm;59477;52.374;9.916;2023-07-31T09:53:57;49.04;38.59;70.04;;
71628;Laerm;59477;52.374;9.916;2023-07-31T09:56:00;48.45;38.92;70.29;;
71628;Laerm;59477;52.374;9.916;2023-07-31T09:58:05;42.98;39.08;58.40;;
71628;Laerm;59477;52.374;9.916;2023-07-31T10:00:05;42.88;38.77;55.27;;
71628;Laerm;59477;52.374;9.916;2023-07-31T10:02:07;46.76;40.45;60.30;;
71628;Laerm;59477;52.374;9.916;2023-07-31T10:04:09;43.32;38.51;49.55;;
71628;Laerm;59477;52.374;9.916;2023-07-31T10:06:10;44.08;38.35;53.84;;
71628;Laerm;59477;52.374;9.916;2023-07-31T10:08:11;45.59;38.89;69.98;;
71628;Laerm;59477;52.374;9.916;2023-07-31T10:10:13;43.05;38.85;54.57;;
71628;Laerm;59477;52.374;9.916;2023-07-31T10:12:15;41.70;38.65;49.15;;
71628;Laerm;59477;52.374;9.916;2023-07-31T10:14:17;44.35;39.87;57.46;;
71628;Laerm;59477;52.374;9.916;2023-07-31T10:16:18;44.58;39.92;54.46;;
71628;Laerm;59477;52.374;9.916;2023-07-31T10:18:19;51.75;38.92;84.42;;
71628;Laerm;59477;52.374;9.916;2023-07-31T10:20:20;46.57;40.81;70.71;;
71628;Laerm;59477;52.374;9.916;2023-07-31T10:22:21;44.06;39.18;54.86;;
71628;Laerm;59477;52.374;9.916;2023-07-31T10:24:21;44.59;39.45;60.00;;
71628;Laerm;59477;52.374;9.916;2023-07-31T10:26:22;44.18;40.58;56.77;;
71628;Laerm;59477;52.374;9.916;2023-07-31T10:28:23;44.36;40.21;53.83;;
71628;Laerm;59477;52.374;9.916;2023-07-31T10:30:26;46.05;40.17;65.39;;
71628;Laerm;59477;52.374;9.916;2023-07-31T10:32:27;44.00;39.66;55.71;;
71628;Laerm;59477;52.374;9.916;2023-07-31T10:34:28;43.60;40.36;52.31;;
71628;Laerm;59477;52.374;9.916;2023-07-31T10:36:28;44.98;39.67;51.75;;
71628;Laerm;59477;52.374;9.916;2023-07-31T10:38:29;46.13;40.51;58.76;;
71628;Laerm;59477;52.374;9.916;2023-07-31T10:40:29;44.37;39.42;55.22;;
71628;Laerm;59477;52.374;9.916;2023-07-31T10:42:36;47.66;39.13;62.86;;
71628;Laerm;59477;52.374;9.916;2023-07-31T10:44:36;45.36;40.59;53.84;;
71628;Laerm;59477;52.374;9.916;2023-07-31T10:46:37;47.09;40.33;57.06;;
71628;Laerm;59477;52.374;9.916;2023-07-31T10:48:38;45.11;41.16;52.36;;
71628;Laerm;59477;52.374;9.916;2023-07-31T10:50:40;45.85;40.73;53.07;;
71628;Laerm;59477;52.374;9.916;2023-07-31T10:52:52;46.52;40.00;56.74;;
71628;Laerm;59477;52.374;9.916;2023-07-31T10:55:13;50.76;41.19;69.85;;
71628;Laerm;59477;52.374;9.916;2023-07-31T10:57:20;57.54;41.46;73.73;;
71628;Laerm;59477;52.374;9.916;2023-07-31T10:59:25;50.48;42.03;67.97;;
71628;Laerm;59477;52.374;9.916;2023-07-31T11:01:26;50.45;42.56;69.16;;
71628;Laerm;59477;52.374;9.916;2023-07-31T11:03:49;47.81;43.25;60.97;;
71628;Laerm;59477;52.374;9.916;2023-07-31T11:05:52;47.85;43.77;57.80;;
71628;Laerm;59477;52.374;9.916;2023-07-31T11:07:54;50.31;44.28;59.61;;
71628;Laerm;59477;52.374;9.916;2023-07-31T11:09:55;51.66;41.61;69.82;;
71628;Laerm;59477;52.374;9.916;2023-07-31T11:11:56;51.12;44.45;63.57;;
71628;Laerm;59477;52.374;9.916;2023-07-31T11:13:56;49.49;44.10;58.59;;
71628;Laerm;59477;52.374;9.916;2023-07-31T11:15:56;50.79;44.40;57.37;;
71628;Laerm;59477;52.374;9.916;2023-07-31T11:17:57;49.94;43.77;59.75;;
71628;Laerm;59477;52.374;9.916;2023-07-31T11:20:00;48.57;42.27;64.49;;
71628;Laerm;59477;52.374;9.916;2023-07-31T11:22:00;47.97;42.47;57.75;;